createdAt,value
2022-09-18T00:01:37.141Z,99025.11
2022-09-18T00:04:07.354Z,99027.70
2022-09-18T00:06:38.316Z,99031.08
2022-09-18T00:09:10.210Z,99030.23
2022-09-18T00:11:44.385Z,99028.05
2022-09-18T00:14:15.069Z,99029.34
2022-09-18T00:16:43.351Z,99029.73
2022-09-18T00:19:11.381Z,99030.39
2022-09-18T00:21:44.464Z,99029.59
2022-09-18T00:24:12.262Z,99030.48
2022-09-18T00:26:40.209Z,99035.16
2022-09-18T00:29:08.068Z,99037.48
2022-09-18T00:31:36.695Z,99037.05
2022-09-18T00:34:08.652Z,99036.45
2022-09-18T00:36:38.540Z,99036.06
2022-09-18T00:39:07.923Z,99040.79
2022-09-18T00:41:38.791Z,99041.15
2022-09-18T00:44:34.499Z,99042.75
2022-09-18T00:47:17.102Z,99044.86
2022-09-18T00:50:00.132Z,99044.52
2022-09-18T00:52:32.297Z,99043.17
2022-09-18T00:55:06.503Z,99045.56
2022-09-18T00:57:38.058Z,99050.20
2022-09-18T01:00:17.297Z,99051.07
2022-09-18T01:02:47.052Z,99050.52
2022-09-18T01:05:19.120Z,99043.48
2022-09-18T01:07:58.000Z,99047.09
2022-09-18T01:10:49.375Z,99045.90
2022-09-18T01:13:44.722Z,99043.55
2022-09-18T01:16:24.639Z,99036.16
2022-09-18T01:19:40.871Z,99036.34
2022-09-18T01:22:50.092Z,99031.70
2022-09-18T01:25:23.620Z,99029.59
2022-09-18T01:28:09.858Z,99029.61
2022-09-18T01:30:43.325Z,99032.33
2022-09-18T01:33:41.193Z,99030.04
2022-09-18T01:36:15.172Z,99025.42
2022-09-18T01:38:48.871Z,99025.71
2022-09-18T01:41:24.841Z,99024.99
2022-09-18T01:44:00.209Z,99026.82
2022-09-18T01:46:29.628Z,99028.95
2022-09-18T01:49:02.886Z,99029.90
2022-09-18T01:51:39.280Z,99022.23
2022-09-18T01:54:13.514Z,99021.94
2022-09-18T01:56:52.577Z,99021.49
2022-09-18T01:59:28.128Z,99015.60
2022-09-18T02:02:08.419Z,99014.13
2022-09-18T02:04:40.150Z,99010.11
2022-09-18T02:07:39.654Z,99010.34
2022-09-18T02:10:08.332Z,99009.16
2022-09-18T02:12:41.337Z,99009.25
2022-09-18T02:15:13.485Z,99006.23
2022-09-18T02:17:59.076Z,99006.77
2022-09-18T02:20:38.107Z,99008.33
2022-09-18T02:23:08.031Z,99009.23
2022-09-18T02:25:42.549Z,99007.96
2022-09-18T02:28:14.077Z,99005.27
2022-09-18T02:30:42.982Z,99009.20
2022-09-18T02:33:32.637Z,99004.52
2022-09-18T02:36:22.883Z,99005.62
2022-09-18T02:39:02.876Z,99000.19
2022-09-18T02:42:11.335Z,99005.20
2022-09-18T02:44:47.693Z,99001.66
2022-09-18T02:47:40.119Z,99003.14
2022-09-18T02:50:28.476Z,98998.73
2022-09-18T02:53:23.257Z,98995.63
2022-09-18T02:56:02.713Z,98991.91
2022-09-18T02:58:45.013Z,98990.94
2022-09-18T03:01:16.667Z,98986.11
2022-09-18T03:03:45.053Z,98984.39
2022-09-18T03:06:14.315Z,98984.77
2022-09-18T03:08:42.062Z,98982.94
2022-09-18T03:11:09.945Z,98982.61
2022-09-18T03:13:37.652Z,98982.10
2022-09-18T03:16:05.419Z,98978.16
2022-09-18T03:18:33.203Z,98977.83
2022-09-18T03:21:00.975Z,98974.64
2022-09-18T03:23:28.662Z,98971.33
2022-09-18T03:26:12.562Z,98973.08
2022-09-18T03:28:41.055Z,98971.47
2022-09-18T03:31:09.065Z,98969.48
2022-09-18T03:33:37.828Z,98973.87
2022-09-18T03:36:06.192Z,98978.52
2022-09-18T03:38:34.911Z,98982.17
2022-09-18T03:41:02.627Z,98986.83
2022-09-18T03:43:30.582Z,98988.84
2022-09-18T03:45:58.540Z,98998.16
2022-09-18T03:48:26.294Z,99000.46
2022-09-18T03:50:54.043Z,99004.07
2022-09-18T03:53:22.395Z,99008.49
2022-09-18T03:56:05.104Z,99012.41
2022-09-18T03:58:52.258Z,99010.05
2022-09-18T04:01:49.191Z,99015.28
2022-09-18T04:04:29.579Z,99010.39
2022-09-18T04:07:21.003Z,99013.34
2022-09-18T04:10:08.467Z,99013.54
2022-09-18T04:12:38.976Z,99014.71
2022-09-18T04:15:19.972Z,99008.33
2022-09-18T04:17:48.142Z,99013.99
2022-09-18T04:20:15.941Z,99017.13
2022-09-18T04:22:43.824Z,99014.82
2022-09-18T04:25:11.676Z,99013.41
2022-09-18T04:27:39.910Z,99013.38
2022-09-18T04:30:09.258Z,99014.17
2022-09-18T04:32:39.676Z,99010.23
2022-09-18T04:35:07.908Z,99010.59
2022-09-18T04:37:35.716Z,99012.71
2022-09-18T04:40:05.442Z,99014.15
2022-09-18T04:42:33.306Z,99015.95
2022-09-18T04:45:01.916Z,99016.79
2022-09-18T04:47:29.673Z,99016.95
2022-09-18T04:49:57.979Z,99015.86
2022-09-18T04:52:27.117Z,99015.39
2022-09-18T04:54:55.194Z,99014.98
2022-09-18T04:57:23.377Z,99016.98
2022-09-18T04:59:51.271Z,99011.56
2022-09-18T05:02:19.711Z,99015.05
2022-09-18T05:04:47.457Z,99016.77
2022-09-18T05:07:23.092Z,99013.55
2022-09-18T05:09:51.724Z,99013.56
2022-09-18T05:12:19.466Z,99015.88
2022-09-18T05:14:47.166Z,99014.13
2022-09-18T05:17:16.342Z,99014.72
2022-09-18T05:19:58.160Z,99011.99
2022-09-18T05:22:26.022Z,99015.04
2022-09-18T05:24:53.826Z,99019.88
2022-09-18T05:27:26.628Z,99018.06
2022-09-18T05:29:54.829Z,99019.30
2022-09-18T05:32:24.512Z,99017.70
2022-09-18T05:34:52.358Z,99026.05
2022-09-18T05:37:20.103Z,99023.61
2022-09-18T05:39:51.293Z,99022.88
2022-09-18T05:42:19.207Z,99029.27
2022-09-18T05:44:46.968Z,99031.96
2022-09-18T05:47:18.317Z,99033.20
2022-09-18T05:49:46.099Z,99030.73
2022-09-18T05:52:13.951Z,99029.34
2022-09-18T05:54:42.298Z,99028.94
2022-09-18T05:57:10.132Z,99030.97
2022-09-18T05:59:38.051Z,99032.58
2022-09-18T06:02:06.367Z,99035.71
2022-09-18T06:05:06.944Z,99035.22
2022-09-18T06:07:34.854Z,99036.58
2022-09-18T06:10:04.312Z,99035.72
2022-09-18T06:12:32.057Z,99035.58
2022-09-18T06:15:02.465Z,99036.63
2022-09-18T06:17:30.197Z,99037.41
2022-09-18T06:20:00.032Z,99040.49
2022-09-18T06:22:27.789Z,99039.22
2022-09-18T06:24:55.595Z,99042.52
2022-09-18T06:27:30.598Z,99041.45
2022-09-18T06:29:58.452Z,99042.45
2022-09-18T06:32:29.200Z,99043.59
2022-09-18T06:34:57.101Z,99045.82
2022-09-18T06:37:25.917Z,99044.88
2022-09-18T06:40:04.263Z,99044.64
2022-09-18T06:42:55.621Z,99046.73
2022-09-18T06:45:57.391Z,99046.61
2022-09-18T06:48:29.317Z,99047.06
2022-09-18T06:50:59.674Z,99048.55
2022-09-18T06:53:29.160Z,99049.17
2022-09-18T06:56:02.054Z,99051.40
2022-09-18T06:58:33.698Z,99054.80
2022-09-18T07:01:02.418Z,99056.41
2022-09-18T07:03:35.863Z,99061.04
2022-09-18T07:06:23.256Z,99061.14
2022-09-18T07:08:53.011Z,99056.06
2022-09-18T07:11:41.971Z,99054.88
2022-09-18T07:14:10.057Z,99059.63
2022-09-18T07:16:37.918Z,99062.30
2022-09-18T07:19:06.818Z,99063.71
2022-09-18T07:21:37.650Z,99065.77
2022-09-18T07:24:05.615Z,99063.35
2022-09-18T07:26:33.470Z,99065.95
2022-09-18T07:29:05.814Z,99068.59
2022-09-18T07:31:36.530Z,99063.72
2022-09-18T07:34:08.232Z,99067.75
2022-09-18T07:36:36.450Z,99069.38
2022-09-18T07:39:05.413Z,99072.93
2022-09-18T07:41:40.933Z,99071.17
2022-09-18T07:44:10.122Z,99075.27
2022-09-18T07:46:38.637Z,99076.67
2022-09-18T07:49:07.622Z,99073.93
2022-09-18T07:51:35.553Z,99073.42
2022-09-18T07:54:03.588Z,99080.03
2022-09-18T07:56:49.124Z,99079.93
2022-09-18T07:59:19.800Z,99088.02
2022-09-18T08:01:55.645Z,99083.88
2022-09-18T08:04:25.065Z,99087.45
2022-09-18T08:07:24.602Z,99086.60
2022-09-18T08:09:58.035Z,99086.65
2022-09-18T08:12:55.059Z,99088.17
2022-09-18T08:15:22.799Z,99086.84
2022-09-18T08:18:13.806Z,99089.13
2022-09-18T08:20:57.770Z,99084.98
2022-09-18T08:23:31.369Z,99084.69
2022-09-18T08:26:02.052Z,99085.77
2022-09-18T08:28:30.715Z,99084.41
2022-09-18T08:31:01.087Z,99085.98
2022-09-18T08:33:28.931Z,99087.72
2022-09-18T08:35:56.669Z,99086.35
2022-09-18T08:38:33.344Z,99081.15
2022-09-18T08:41:44.038Z,99075.45
2022-09-18T08:44:30.417Z,99075.45
2022-09-18T08:47:07.822Z,99075.88
2022-09-18T08:49:57.883Z,99076.23
2022-09-18T08:52:29.588Z,99076.80
2022-09-18T08:55:30.351Z,99072.23
2022-09-18T08:58:58.843Z,99073.86
2022-09-18T09:01:44.964Z,99070.42
2022-09-18T09:04:25.280Z,99071.98
2022-09-18T09:07:25.638Z,99065.92
2022-09-18T09:10:21.297Z,99064.18
2022-09-18T09:13:15.645Z,99067.20
2022-09-18T09:16:04.815Z,99068.77
2022-09-18T09:18:52.581Z,99066.01
2022-09-18T09:21:24.493Z,99067.44
2022-09-18T09:24:29.722Z,99068.56
2022-09-18T09:27:25.330Z,99068.54
2022-09-18T09:30:18.759Z,99067.21
2022-09-18T09:33:20.565Z,99064.02
2022-09-18T09:36:17.651Z,99062.13
2022-09-18T09:38:52.991Z,99060.98
2022-09-18T09:41:40.517Z,99065.25
2022-09-18T09:44:34.237Z,99064.36
2022-09-18T09:47:15.662Z,99062.37
2022-09-18T09:49:55.762Z,99066.27
2022-09-18T09:52:28.614Z,99068.66
2022-09-18T09:55:15.308Z,99068.30
2022-09-18T09:58:03.522Z,99073.66
2022-09-18T10:00:40.077Z,99076.45
2022-09-18T10:03:23.206Z,99072.20
2022-09-18T10:06:16.898Z,99080.11
2022-09-18T10:08:55.930Z,99085.64
2022-09-18T10:11:24.332Z,99084.17
2022-09-18T10:13:59.774Z,99091.50
2022-09-18T10:16:40.700Z,99092.70
2022-09-18T10:19:16.588Z,99090.52
2022-09-18T10:21:45.626Z,99093.97
2022-09-18T10:24:25.844Z,99101.21
2022-09-18T10:27:02.616Z,99100.30
2022-09-18T10:29:35.551Z,99102.55
2022-09-18T10:32:04.776Z,99106.66
2022-09-18T10:34:49.675Z,99111.23
2022-09-18T10:37:29.977Z,99111.05
2022-09-18T10:40:08.035Z,99110.42
2022-09-18T10:42:37.374Z,99108.44
2022-09-18T10:45:26.252Z,99106.61
2022-09-18T10:48:13.716Z,99109.48
2022-09-18T10:51:15.029Z,99115.48
2022-09-18T10:53:45.314Z,99114.49
2022-09-18T10:56:20.551Z,99117.60
2022-09-18T10:58:53.569Z,99122.89
2022-09-18T11:01:25.611Z,99125.09
2022-09-18T11:04:14.252Z,99124.28
2022-09-18T11:06:46.562Z,99123.21
2022-09-18T11:09:30.847Z,99121.05
2022-09-18T11:11:59.729Z,99118.34
2022-09-18T11:14:38.552Z,99122.24
2022-09-18T11:17:26.900Z,99124.85
2022-09-18T11:19:57.718Z,99127.27
2022-09-18T11:22:41.688Z,99127.86
2022-09-18T11:25:27.576Z,99125.02
2022-09-18T11:28:28.550Z,99125.68
2022-09-18T11:31:24.619Z,99123.02
2022-09-18T11:34:00.741Z,99122.41
2022-09-18T11:36:33.519Z,99121.36
2022-09-18T11:39:14.981Z,99122.23
2022-09-18T11:41:44.433Z,99121.59
2022-09-18T11:44:22.380Z,99125.23
2022-09-18T11:47:10.379Z,99123.49
2022-09-18T11:50:05.553Z,99125.30
2022-09-18T11:52:42.772Z,99121.48
2022-09-18T11:55:13.729Z,99115.68
2022-09-18T11:57:47.464Z,99117.75
2022-09-18T12:00:23.598Z,99120.30
2022-09-18T12:03:17.104Z,99122.15
2022-09-18T12:05:53.375Z,99122.80
2022-09-18T12:08:41.164Z,99120.10
2022-09-18T12:11:30.184Z,99121.29
2022-09-18T12:14:09.840Z,99123.77
2022-09-18T12:16:46.962Z,99124.98
2022-09-18T12:19:34.576Z,99123.83
2022-09-18T12:22:18.311Z,99127.53
2022-09-18T12:24:47.167Z,99122.08
2022-09-18T12:27:44.553Z,99122.45
2022-09-18T12:30:18.358Z,99123.50
2022-09-18T12:32:58.408Z,99122.19
2022-09-18T12:36:12.353Z,99123.57
2022-09-18T12:38:59.530Z,99124.58
2022-09-18T12:41:56.579Z,99125.21
2022-09-18T12:44:41.673Z,99127.19
2022-09-18T12:47:16.936Z,99125.95
2022-09-18T12:49:47.623Z,99122.41
2022-09-18T12:52:46.769Z,99124.63
2022-09-18T12:55:47.910Z,99125.21
2022-09-18T12:58:16.622Z,99124.36
2022-09-18T13:00:48.997Z,99122.68
2022-09-18T13:03:19.729Z,99124.91
2022-09-18T13:05:58.843Z,99124.04
2022-09-18T13:08:39.211Z,99127.17
2022-09-18T13:11:32.907Z,99130.18
2022-09-18T13:14:31.385Z,99127.31
2022-09-18T13:17:12.768Z,99132.45
2022-09-18T13:19:59.915Z,99133.65
2022-09-18T13:22:33.681Z,99138.10
2022-09-18T13:25:03.398Z,99137.52
2022-09-18T13:27:32.067Z,99143.29
2022-09-18T13:30:14.989Z,99142.87
2022-09-18T13:32:42.826Z,99141.41
2022-09-18T13:35:13.338Z,99142.73
2022-09-18T13:37:42.729Z,99145.94
2022-09-18T13:40:31.100Z,99144.86
2022-09-18T13:42:59.828Z,99152.65
2022-09-18T13:45:28.340Z,99149.38
2022-09-18T13:48:02.922Z,99148.94
2022-09-18T13:50:34.405Z,99153.85
2022-09-18T13:53:05.116Z,99159.80
2022-09-18T13:55:36.839Z,99162.60
2022-09-18T13:58:35.147Z,99163.22
2022-09-18T14:01:05.040Z,99167.77
2022-09-18T14:03:40.942Z,99165.86
2022-09-18T14:06:37.610Z,99164.42
2022-09-18T14:09:47.291Z,99169.70
2022-09-18T14:12:17.601Z,99169.26
2022-09-18T14:15:04.499Z,99172.77
2022-09-18T14:17:34.841Z,99166.36
2022-09-18T14:20:08.030Z,99165.69
2022-09-18T14:22:38.361Z,99164.34
2022-09-18T14:25:10.258Z,99166.17
2022-09-18T14:27:56.997Z,99166.79
2022-09-18T14:30:29.111Z,99165.96
2022-09-18T14:33:18.573Z,99166.72
2022-09-18T14:35:55.554Z,99166.38
2022-09-18T14:38:25.958Z,99165.77
2022-09-18T14:41:05.820Z,99164.27
2022-09-18T14:43:33.589Z,99165.77
2022-09-18T14:46:01.736Z,99163.38
2022-09-18T14:48:35.340Z,99165.95
2022-09-18T14:51:07.039Z,99166.88
2022-09-18T14:53:45.977Z,99165.63
2022-09-18T14:56:18.202Z,99162.83
2022-09-18T14:58:50.484Z,99164.27
2022-09-18T15:01:30.560Z,99160.94
2022-09-18T15:04:02.160Z,99162.73
2022-09-18T15:06:34.886Z,99159.37
2022-09-18T15:09:04.922Z,99162.92
2022-09-18T15:11:46.976Z,99165.06
2022-09-18T15:14:32.706Z,99163.23
2022-09-18T15:17:06.527Z,99162.40
2022-09-18T15:19:34.389Z,99158.59
2022-09-18T15:22:02.254Z,99158.08
2022-09-18T15:24:31.403Z,99154.86
2022-09-18T15:27:02.154Z,99156.35
2022-09-18T15:29:38.952Z,99154.01
2022-09-18T15:32:07.719Z,99150.47
2022-09-18T15:34:46.340Z,99152.63
2022-09-18T15:37:23.852Z,99145.64
2022-09-18T15:40:08.394Z,99145.73
2022-09-18T15:42:40.381Z,99143.42
2022-09-18T15:45:08.148Z,99143.91
2022-09-18T15:47:39.263Z,99147.08
2022-09-18T15:50:30.168Z,99145.91
2022-09-18T15:52:58.261Z,99145.55
2022-09-18T15:55:32.327Z,99143.80
2022-09-18T15:58:02.886Z,99146.13
2022-09-18T16:00:36.730Z,99146.15
2022-09-18T16:03:18.203Z,99147.27
2022-09-18T16:05:53.449Z,99146.60
2022-09-18T16:08:25.356Z,99145.42
2022-09-18T16:10:54.961Z,99141.10
2022-09-18T16:13:22.633Z,99144.48
2022-09-18T16:16:11.578Z,99142.23
2022-09-18T16:19:11.217Z,99146.80
2022-09-18T16:21:41.770Z,99148.27
2022-09-18T16:24:30.016Z,99143.96
2022-09-18T16:27:05.756Z,99141.31
2022-09-18T16:29:35.171Z,99142.20
2022-09-18T16:32:03.002Z,99141.81
2022-09-18T16:34:30.716Z,99142.48
2022-09-18T16:36:58.447Z,99145.52
2022-09-18T16:39:27.160Z,99144.65
2022-09-18T16:41:54.879Z,99149.46
2022-09-18T16:44:22.894Z,99145.91
2022-09-18T16:47:07.777Z,99143.98
2022-09-18T16:49:38.851Z,99143.11
2022-09-18T16:52:06.575Z,99146.01
2022-09-18T16:54:34.874Z,99145.52
2022-09-18T16:57:07.351Z,99146.10
2022-09-18T16:59:38.711Z,99149.98
2022-09-18T17:02:06.557Z,99150.80
2022-09-18T17:04:34.928Z,99148.43
2022-09-18T17:07:03.277Z,99150.37
2022-09-18T17:09:31.440Z,99147.85
2022-09-18T17:11:59.696Z,99146.64
2022-09-18T17:14:27.549Z,99148.52
2022-09-18T17:16:55.675Z,99149.96
2022-09-18T17:19:23.451Z,99149.24
2022-09-18T17:21:51.237Z,99146.87
2022-09-18T17:24:25.534Z,99152.00
2022-09-18T17:26:54.121Z,99156.13
2022-09-18T17:29:22.172Z,99157.71
2022-09-18T17:31:50.111Z,99157.92
2022-09-18T17:34:19.058Z,99161.45
2022-09-18T17:36:46.846Z,99166.95
2022-09-18T17:39:16.983Z,99160.37
2022-09-18T17:41:45.897Z,99169.87
2022-09-18T17:44:14.820Z,99167.51
2022-09-18T17:46:42.610Z,99170.39
2022-09-18T17:49:10.373Z,99168.30
2022-09-18T17:51:38.096Z,99169.03
2022-09-18T17:54:05.901Z,99167.96
2022-09-18T17:56:34.284Z,99170.16
2022-09-18T17:59:11.367Z,99176.51
2022-09-18T18:01:43.430Z,99175.17
2022-09-18T18:04:11.695Z,99177.02
2022-09-18T18:06:40.257Z,99181.77
2022-09-18T18:09:10.117Z,99187.19
2022-09-18T18:11:38.810Z,99188.41
2022-09-18T18:14:06.986Z,99193.95
2022-09-18T18:16:34.939Z,99195.63
2022-09-18T18:19:05.547Z,99197.77
2022-09-18T18:21:34.560Z,99202.06
2022-09-18T18:24:09.003Z,99207.16
2022-09-18T18:26:40.437Z,99208.34
2022-09-18T18:29:11.557Z,99211.13
2022-09-18T18:31:42.123Z,99215.64
2022-09-18T18:34:11.686Z,99220.14
2022-09-18T18:36:42.072Z,99223.09
2022-09-18T18:39:13.073Z,99221.36
2022-09-18T18:41:44.817Z,99225.19
2022-09-18T18:44:14.558Z,99226.85
2022-09-18T18:46:42.719Z,99225.10
2022-09-18T18:49:12.922Z,99222.98
2022-09-18T18:51:47.948Z,99223.64
2022-09-18T18:54:17.618Z,99224.02
2022-09-18T18:56:47.093Z,99222.70
2022-09-18T18:59:17.072Z,99222.21
2022-09-18T19:01:44.956Z,99223.65
2022-09-18T19:04:15.587Z,99223.67
2022-09-18T19:06:44.223Z,99223.09
2022-09-18T19:09:21.379Z,99221.07
2022-09-18T19:11:51.089Z,99223.40
2022-09-18T19:14:21.479Z,99220.54
2022-09-18T19:16:50.360Z,99220.66
2022-09-18T19:19:20.972Z,99221.98
2022-09-18T19:21:48.761Z,99225.21
2022-09-18T19:24:18.648Z,99223.24
2022-09-18T19:26:47.976Z,99230.33
2022-09-18T19:29:17.636Z,99233.20
2022-09-18T19:31:46.966Z,99231.81
2022-09-18T19:34:18.496Z,99232.77
2022-09-18T19:36:50.428Z,99236.73
2022-09-18T19:39:21.032Z,99235.27
2022-09-18T19:42:06.706Z,99236.48
2022-09-18T19:44:43.186Z,99238.27
2022-09-18T19:47:17.230Z,99238.70
2022-09-18T19:49:45.181Z,99236.07
2022-09-18T19:52:19.589Z,99234.19
2022-09-18T19:54:48.778Z,99237.31
2022-09-18T19:57:17.994Z,99238.43
2022-09-18T19:59:47.013Z,99237.70
2022-09-18T20:02:17.486Z,99236.27
2022-09-18T20:04:45.394Z,99232.08
2022-09-18T20:07:13.647Z,99231.70
2022-09-18T20:09:41.468Z,99234.48
2022-09-18T20:12:09.999Z,99236.46
2022-09-18T20:14:37.705Z,99232.30
2022-09-18T20:17:05.588Z,99228.19
2022-09-18T20:19:33.997Z,99234.09
2022-09-18T20:22:02.810Z,99228.05
2022-09-18T20:24:31.784Z,99228.96
2022-09-18T20:27:00.466Z,99225.53
2022-09-18T20:29:29.080Z,99224.29
2022-09-18T20:31:58.330Z,99220.73
2022-09-18T20:34:26.267Z,99221.52
2022-09-18T20:36:54.937Z,99220.39
2022-09-18T20:39:22.748Z,99218.16
2022-09-18T20:41:51.277Z,99218.00
2022-09-18T20:44:19.136Z,99218.17
2022-09-18T20:46:46.968Z,99217.77
2022-09-18T20:49:17.447Z,99213.00
2022-09-18T20:51:46.118Z,99212.88
2022-09-18T20:54:14.901Z,99213.89
2022-09-18T20:56:44.482Z,99212.59
2022-09-18T20:59:16.589Z,99213.27
2022-09-18T21:01:47.578Z,99216.43
2022-09-18T21:04:19.344Z,99214.55
2022-09-18T21:06:55.309Z,99212.84
2022-09-18T21:09:26.452Z,99211.95
2022-09-18T21:11:56.760Z,99210.50
2022-09-18T21:14:25.652Z,99206.25
2022-09-18T21:16:53.510Z,99203.45
2022-09-18T21:19:21.296Z,99206.88
2022-09-18T21:21:49.311Z,99207.30
2022-09-18T21:24:17.587Z,99203.30
2022-09-18T21:26:48.606Z,99203.27
2022-09-18T21:29:18.065Z,99206.27
2022-09-18T21:31:47.375Z,99203.95
2022-09-18T21:34:21.081Z,99203.80
2022-09-18T21:36:49.127Z,99202.13
2022-09-18T21:39:16.832Z,99201.29
2022-09-18T21:41:47.699Z,99201.53
2022-09-18T21:44:17.983Z,99203.98
2022-09-18T21:46:45.997Z,99200.33
2022-09-18T21:49:15.023Z,99196.25
2022-09-18T21:51:43.824Z,99192.14
2022-09-18T21:54:17.661Z,99191.37
2022-09-18T21:56:49.302Z,99194.16
2022-09-18T21:59:18.384Z,99193.64
2022-09-18T22:01:49.062Z,99196.66
2022-09-18T22:04:17.452Z,99199.83
2022-09-18T22:06:46.189Z,99197.13
2022-09-18T22:09:19.937Z,99197.63
2022-09-18T22:11:49.213Z,99195.30
2022-09-18T22:14:23.832Z,99200.02
2022-09-18T22:16:53.752Z,99197.59
2022-09-18T22:19:21.551Z,99198.70
2022-09-18T22:21:50.836Z,99194.76
2022-09-18T22:24:21.622Z,99195.53
2022-09-18T22:26:56.769Z,99194.23
2022-09-18T22:29:27.395Z,99195.83
2022-09-18T22:31:55.972Z,99197.25
2022-09-18T22:34:26.436Z,99201.45
2022-09-18T22:36:55.307Z,99202.67
2022-09-18T22:39:23.408Z,99199.85
2022-09-18T22:41:51.657Z,99203.64
2022-09-18T22:44:22.838Z,99204.44
2022-09-18T22:46:52.736Z,99205.31
2022-09-18T22:49:22.417Z,99207.40
2022-09-18T22:51:50.651Z,99208.03
2022-09-18T22:54:23.979Z,99213.56
2022-09-18T22:56:52.623Z,99213.09
2022-09-18T22:59:22.452Z,99209.98
2022-09-18T23:01:55.380Z,99210.63
2022-09-18T23:04:28.949Z,99213.66
2022-09-18T23:06:59.289Z,99217.95
2022-09-18T23:09:28.341Z,99222.02
2022-09-18T23:11:57.039Z,99219.55
2022-09-18T23:14:28.217Z,99216.85
2022-09-18T23:16:56.938Z,99220.32
2022-09-18T23:19:27.006Z,99218.09
2022-09-18T23:21:56.054Z,99216.40
2022-09-18T23:24:24.854Z,99211.18
2022-09-18T23:26:55.775Z,99213.13
2022-09-18T23:29:25.315Z,99217.35
2022-09-18T23:31:55.220Z,99212.68
2022-09-18T23:34:27.832Z,99212.25
2022-09-18T23:36:56.255Z,99215.04
2022-09-18T23:39:29.472Z,99212.10
2022-09-18T23:41:59.325Z,99206.93
2022-09-18T23:44:31.284Z,99204.27
2022-09-18T23:47:00.176Z,99202.95
2022-09-18T23:49:28.775Z,99204.77
2022-09-18T23:51:59.990Z,99203.46
2022-09-18T23:54:31.214Z,99205.31
2022-09-18T23:56:59.059Z,99203.69
2022-09-18T23:59:27.803Z,99206.43
